Time Latitude Longitude Accuracy (66% radius in meters) Altitude (meters) Speed (km/hour) Bearing (degrees) Battery (%) GPS flag
07:01:07 57.200916 60.111129 4.2880001068115 297 0 0 47 1 delete
07:00:45 57.200896 60.110963 6.4320001602173 300 1.3099999427795 87.5 47 1 delete
07:00:35 57.200861 60.110798 5.3600001335144 301 1.9400000572205 61.099998474121 47 1 delete
07:00:30 57.200814 60.110647 6.4320001602173 302 2.2300000190735 56.400001525879 47 1 delete
07:00:23 57.200771 60.110470 6.4320001602173 306 0.97000002861023 29.89999961853 47 1 delete
07:00:08 57.200700 60.110358 6.4320001602173 303 0.77999997138977 58.299999237061 47 1 delete
07:00:01 57.200632 60.110229 6.4320001602173 302 0.91000002622604 62.900001525879 47 1 delete
06:59:53 57.200575 60.110087 5.3600001335144 302 1.5700000524521 62.099998474121 47 1 delete
06:59:47 57.200526 60.109910 4.2880001068115 300 0.94999998807907 34.700000762939 47 1 delete
06:59:38 57.200482 60.109754 5.3600001335144 298 1.3899999856949 80.400001525879 47 1 delete
06:59:28 57.200458 60.109593 6.4320001602173 301 2.0299999713898 50.799999237061 47 1 delete
06:59:24 57.200389 60.109473 6.4320001602173 302 3.0199999809265 40.700000762939 47 1 delete
06:59:20 57.200295 60.109347 6.4320001602173 301 2.75 35.299999237061 47 1 delete
06:59:15 57.200223 60.109234 5.3600001335144 303 1.1299999952316 49.599998474121 47 1 delete
06:59:09 57.200167 60.109092 4.2880001068115 301 1.0099999904633 25.5 47 1 delete
06:58:57 57.200104 60.108972 4.2880001068115 301 1.6900000572205 39.900001525879 47 1 delete
06:58:45 57.200024 60.108851 4.2880001068115 297 1.3300000429153 36.599998474121 47 1 delete
06:58:36 57.199941 60.108768 4.2880001068115 299 2.3900001049042 8.8000001907349 47 1 delete
06:58:08 57.199838 60.108762 5.3600001335144 294 1.2200000286102 201.69999694824 47 1 delete
06:58:04 57.199937 60.108811 5.3600001335144 293 2.9900000095367 199 47 1 delete
06:58:01 57.200037 60.108906 4.2880001068115 294 4.2300000190735 224.39999389648 47 1 delete
06:57:58 57.200121 60.109079 5.3600001335144 293 3.3599998950958 222.89999389648 47 1 delete
06:57:53 57.200199 60.109209 5.3600001335144 291 1.5 169.60000610352 47 1 delete
06:57:47 57.200289 60.109155 5.3600001335144 291 1.0800000429153 128.60000610352 47 1 delete
06:57:38 57.200390 60.109115 5.3600001335144 290 1.3700000047684 163.19999694824 47 1 delete
06:57:33 57.200486 60.109084 4.2880001068115 291 1.8099999427795 170 47 1 delete
06:57:29 57.200590 60.109041 4.2880001068115 291 2.5199999809265 183.89999389648 47 1 delete
06:57:25 57.200693 60.109083 4.2880001068115 290 2.9300000667572 202.69999694824 47 1 delete
06:57:20 57.200775 60.109223 4.2880001068115 292 1.8300000429153 224.69999694824 47 1 delete
06:57:09 57.200861 60.109288 6.4320001602173 295 1.0099999904633 189 47 1 delete
06:57:00 57.200951 60.109312 5.3600001335144 294 1.8099999427795 200.39999389648 47 1 delete
06:56:54 57.201050 60.109289 6.4320001602173 297 1.2300000190735 150.60000610352 47 1 delete
06:56:46 57.201098 60.109127 6.4320001602173 294 0.68000000715256 136.19999694824 47 1 delete
06:56:39 57.201147 60.108980 5.3600001335144 288 1.0900000333786 96.099998474121 47 1 delete
06:56:33 57.201156 60.108804 5.3600001335144 288 1.9199999570847 81.5 47 1 delete
06:56:28 57.201153 60.108633 5.3600001335144 288 1.960000038147 79.599998474121 47 1 delete
06:56:23 57.201152 60.108458 6.4320001602173 287 2.5699999332428 91.800003051758 47 1 delete
06:56:19 57.201193 60.108304 6.4320001602173 285 2.5999999046326 134.30000305176 47 1 delete
06:56:15 57.201271 60.108185 6.4320001602173 283 1.8400000333786 140.30000305176 47 1 delete
06:56:11 57.201349 60.108057 6.4320001602173 282 2.2699999809265 125.80000305176 47 1 delete
06:56:07 57.201431 60.107938 6.4320001602173 278 1.6499999761581 146.30000305176 47 1 delete
06:56:01 57.201522 60.107868 6.4320001602173 274 0 0 47 1 delete
06:55:54 57.201612 60.107818 8.576000213623 274 1.960000038147 170.69999694824 47 1 delete
06:55:50 57.201703 60.107738 7.5040001869202 274 2.1700000762939 147.5 47 1 delete
06:55:45 57.201807 60.107682 11.791999816895 274 1.6000000238419 183 47 1 delete
06:55:41 57.201899 60.107690 8.576000213623 272 2.4200000762939 187.39999389648 47 1 delete
06:55:36 57.202011 60.107700 7.5040001869202 271 1.7000000476837 185.69999694824 47 1 delete
06:55:31 57.202111 60.107711 6.4320001602173 274 1.0800000429153 179.5 47 1 delete
06:55:26 57.202210 60.107714 6.4320001602173 272 2.0099999904633 184.39999389648 47 1 delete
06:55:22 57.202313 60.107761 7.5040001869202 271 2.5999999046326 197.39999389648 47 1 delete